الصفحة الرئيسية
METAR-TAF:

METAR-TAF

مطار :

لوساكا, زامبيا

دائرة عرض: 15-19-51S, خط طول: 028-27-09E, ارتفاع: 1152 متر

مراقبة الطقس الحالي

تاريخ ووقت الإصدار 14ساعات و 29 دقيقة قبل الساعة 05:00UTC
ريح 2 عقدة من الجنوب الشرقي
درجة الحرارة 7°درجة مئوية
الرطوبة 76%
ضغط 1026 hPa
الرؤية 10 كم أو أكثر
الغيوم لا تقل 1500 م ولا وجود لمزنة ركامية السحاب الأسود

METAR: FLKK 140500Z 14002KT CAVOK 07/03 Q1026 NOSIG

زمن: 21:29 (19:29 UTC)

توقعات

تاريخ ووقت الإصدار 3ساعات و 29 دقيقة قبل الساعة 16:00UTC
التوقعات صالحة من14 الساعة 18 UTC إلى 15 الساعة 24 UTC
ريح 5 عقدة من الجنوب الشرقي
الرؤية 10 كم أو أكثر
الغيوم لا تقل 1500 م ولا وجود لمزنة ركامية السحاب الأسود
من 14 الساعة 1900 UTC
ريح 3 عقدةمن اتجاهات متغيرة
أصبح
من 15 الساعة 03 UTC إلى 15 الساعة 05 UTC
ريح 5 عقدة من الجنوب الشرقي
أصبح
من 15 الساعة 06 UTC إلى 15 الساعة 08 UTC
ريح 10 عقدة من الشرق/الجنوب الشرقي

TAF: FLKK 141600Z 1418/1524 13005KT CAVOK FM141900 VRB03KT BECMG 1503/1505 13005KT BECMG 1506/1508 12010KT

أرصاد الطقس والتوقعات من أكثر من 4000 مطار (تقارير الطقس للمطار METAR والتنبؤ بالطقس بالمطارTAF).

المحطات المتاحة هي النقط الصفراء والحمراء على الخريطة.

حرك المؤشر فوق النقطة لمعرفة اسم المحطة.

ثم انقر لمعرفة أرصاد وتوقعات الطقس.

لتغيير الخارطة: اضغط على الأزرار الخضراء مع رمز الصليب الأسود للتكبير. على الزر الأخضر مع شرطة للتصغير، أو على الأسهم الخضراء للخرائط المجاورة.


METAR-TAF: